sensor_id;sensor_type;location;lat;lon;timestamp;temperature;humidity
12874;DHT22;6505;51.114;13.128;2022-08-19T00:02:03;28.00;61.30
12874;DHT22;6505;51.114;13.128;2022-08-19T00:04:33;28.10;61.80
12874;DHT22;6505;51.114;13.128;2022-08-19T00:07:04;28.00;61.80
12874;DHT22;6505;51.114;13.128;2022-08-19T00:09:33;28.00;62.70
12874;DHT22;6505;51.114;13.128;2022-08-19T00:12:03;28.00;62.10
12874;DHT22;6505;51.114;13.128;2022-08-19T00:14:32;28.00;62.30
12874;DHT22;6505;51.114;13.128;2022-08-19T00:17:04;28.00;62.10
12874;DHT22;6505;51.114;13.128;2022-08-19T00:19:38;27.90;62.40
12874;DHT22;6505;51.114;13.128;2022-08-19T00:22:09;28.00;62.40
12874;DHT22;6505;51.114;13.128;2022-08-19T00:24:37;27.90;62.40
12874;DHT22;6505;51.114;13.128;2022-08-19T00:27:16;27.90;62.50
12874;DHT22;6505;51.114;13.128;2022-08-19T00:29:53;27.90;62.40
12874;DHT22;6505;51.114;13.128;2022-08-19T00:32:22;27.90;62.70
12874;DHT22;6505;51.114;13.128;2022-08-19T00:34:52;27.90;62.70
12874;DHT22;6505;51.114;13.128;2022-08-19T00:37:21;27.90;62.60
12874;DHT22;6505;51.114;13.128;2022-08-19T00:39:50;27.90;62.80
12874;DHT22;6505;51.114;13.128;2022-08-19T00:42:20;27.90;62.80
12874;DHT22;6505;51.114;13.128;2022-08-19T00:44:49;27.90;62.70
12874;DHT22;6505;51.114;13.128;2022-08-19T00:47:19;27.90;62.80
12874;DHT22;6505;51.114;13.128;2022-08-19T00:49:50;27.90;62.60
12874;DHT22;6505;51.114;13.128;2022-08-19T00:52:23;27.90;62.50
12874;DHT22;6505;51.114;13.128;2022-08-19T00:54:56;27.80;62.80
12874;DHT22;6505;51.114;13.128;2022-08-19T00:57:35;27.80;63.00
12874;DHT22;6505;51.114;13.128;2022-08-19T01:00:15;27.80;63.00
12874;DHT22;6505;51.114;13.128;2022-08-19T01:02:47;27.80;62.80
12874;DHT22;6505;51.114;13.128;2022-08-19T01:05:21;27.90;62.90
12874;DHT22;6505;51.114;13.128;2022-08-19T01:07:54;27.80;63.40
12874;DHT22;6505;51.114;13.128;2022-08-19T01:10:27;27.80;64.00
12874;DHT22;6505;51.114;13.128;2022-08-19T01:13:03;27.80;63.20
12874;DHT22;6505;51.114;13.128;2022-08-19T01:15:34;27.80;63.40
12874;DHT22;6505;51.114;13.128;2022-08-19T01:18:16;27.80;64.30
12874;DHT22;6505;51.114;13.128;2022-08-19T01:20:47;27.80;63.50
12874;DHT22;6505;51.114;13.128;2022-08-19T01:23:17;27.80;63.50
12874;DHT22;6505;51.114;13.128;2022-08-19T01:25:47;27.80;63.50
12874;DHT22;6505;51.114;13.128;2022-08-19T01:28:23;27.80;63.70
12874;DHT22;6505;51.114;13.128;2022-08-19T01:31:00;27.80;63.60
12874;DHT22;6505;51.114;13.128;2022-08-19T01:33:34;27.70;63.30
12874;DHT22;6505;51.114;13.128;2022-08-19T01:36:07;27.70;63.50
12874;DHT22;6505;51.114;13.128;2022-08-19T01:38:42;27.70;63.80
12874;DHT22;6505;51.114;13.128;2022-08-19T01:41:11;27.70;64.00
12874;DHT22;6505;51.114;13.128;2022-08-19T01:43:40;27.70;63.80
12874;DHT22;6505;51.114;13.128;2022-08-19T01:46:28;27.70;63.90
12874;DHT22;6505;51.114;13.128;2022-08-19T01:48:56;27.70;64.00
12874;DHT22;6505;51.114;13.128;2022-08-19T01:51:25;27.70;64.20
12874;DHT22;6505;51.114;13.128;2022-08-19T01:53:56;27.70;63.90
12874;DHT22;6505;51.114;13.128;2022-08-19T01:56:25;27.70;64.20
12874;DHT22;6505;51.114;13.128;2022-08-19T01:58:55;27.70;64.30
12874;DHT22;6505;51.114;13.128;2022-08-19T02:01:27;27.60;64.30
12874;DHT22;6505;51.114;13.128;2022-08-19T02:03:58;27.70;64.30
12874;DHT22;6505;51.114;13.128;2022-08-19T02:06:27;27.70;64.20
12874;DHT22;6505;51.114;13.128;2022-08-19T02:08:58;27.60;64.30
12874;DHT22;6505;51.114;13.128;2022-08-19T02:11:29;27.60;64.20
12874;DHT22;6505;51.114;13.128;2022-08-19T02:14:01;27.60;64.40
12874;DHT22;6505;51.114;13.128;2022-08-19T02:16:32;27.60;64.40
12874;DHT22;6505;51.114;13.128;2022-08-19T02:19:01;27.60;64.50
12874;DHT22;6505;51.114;13.128;2022-08-19T02:21:31;27.60;64.40
12874;DHT22;6505;51.114;13.128;2022-08-19T02:24:01;27.60;64.50
12874;DHT22;6505;51.114;13.128;2022-08-19T02:26:31;27.60;64.40
12874;DHT22;6505;51.114;13.128;2022-08-19T02:29:00;27.60;64.60
12874;DHT22;6505;51.114;13.128;2022-08-19T02:31:29;27.70;64.50
12874;DHT22;6505;51.114;13.128;2022-08-19T02:33:57;27.70;65.60
12874;DHT22;6505;51.114;13.128;2022-08-19T02:36:26;27.60;64.90
12874;DHT22;6505;51.114;13.128;2022-08-19T02:38:56;27.60;64.80
12874;DHT22;6505;51.114;13.128;2022-08-19T02:41:26;27.60;64.40
12874;DHT22;6505;51.114;13.128;2022-08-19T02:43:57;27.60;65.00
12874;DHT22;6505;51.114;13.128;2022-08-19T02:46:47;27.70;65.80
12874;DHT22;6505;51.114;13.128;2022-08-19T02:49:18;27.60;64.60
12874;DHT22;6505;51.114;13.128;2022-08-19T02:51:47;27.60;64.90
12874;DHT22;6505;51.114;13.128;2022-08-19T02:54:15;27.60;65.70
12874;DHT22;6505;51.114;13.128;2022-08-19T02:56:45;27.50;64.90
12874;DHT22;6505;51.114;13.128;2022-08-19T02:59:13;27.50;64.90
12874;DHT22;6505;51.114;13.128;2022-08-19T03:01:42;27.50;64.80
12874;DHT22;6505;51.114;13.128;2022-08-19T03:04:13;27.50;64.90
12874;DHT22;6505;51.114;13.128;2022-08-19T03:06:46;27.50;65.10
12874;DHT22;6505;51.114;13.128;2022-08-19T03:09:17;27.50;65.10
12874;DHT22;6505;51.114;13.128;2022-08-19T03:11:48;27.50;65.10
12874;DHT22;6505;51.114;13.128;2022-08-19T03:14:18;27.50;65.00
12874;DHT22;6505;51.114;13.128;2022-08-19T03:16:48;27.50;65.00
12874;DHT22;6505;51.114;13.128;2022-08-19T03:19:19;27.50;65.10
12874;DHT22;6505;51.114;13.128;2022-08-19T03:21:48;27.50;65.20
12874;DHT22;6505;51.114;13.128;2022-08-19T03:24:18;27.40;65.20
12874;DHT22;6505;51.114;13.128;2022-08-19T03:26:50;27.50;65.30
12874;DHT22;6505;51.114;13.128;2022-08-19T03:29:22;27.50;65.00
12874;DHT22;6505;51.114;13.128;2022-08-19T03:31:58;27.50;65.30
12874;DHT22;6505;51.114;13.128;2022-08-19T03:34:32;27.50;65.50
12874;DHT22;6505;51.114;13.128;2022-08-19T03:37:05;27.50;65.50
12874;DHT22;6505;51.114;13.128;2022-08-19T03:39:36;27.40;65.60
12874;DHT22;6505;51.114;13.128;2022-08-19T03:42:07;27.50;65.60
12874;DHT22;6505;51.114;13.128;2022-08-19T03:44:57;27.40;65.60
12874;DHT22;6505;51.114;13.128;2022-08-19T03:47:25;27.50;65.60
12874;DHT22;6505;51.114;13.128;2022-08-19T03:49:54;27.40;65.60
12874;DHT22;6505;51.114;13.128;2022-08-19T03:52:22;27.40;65.80
12874;DHT22;6505;51.114;13.128;2022-08-19T03:54:50;27.40;65.90
12874;DHT22;6505;51.114;13.128;2022-08-19T03:57:20;27.40;65.60
12874;DHT22;6505;51.114;13.128;2022-08-19T03:59:57;27.40;65.40
12874;DHT22;6505;51.114;13.128;2022-08-19T04:02:39;27.40;65.30
12874;DHT22;6505;51.114;13.128;2022-08-19T04:05:24;27.40;65.30
12874;DHT22;6505;51.114;13.128;2022-08-19T04:07:54;27.40;64.80
12874;DHT22;6505;51.114;13.128;2022-08-19T04:10:23;27.40;65.10
12874;DHT22;6505;51.114;13.128;2022-08-19T04:12:53;27.40;65.20
12874;DHT22;6505;51.114;13.128;2022-08-19T04:15:21;27.40;65.40
12874;DHT22;6505;51.114;13.128;2022-08-19T04:17:49;27.30;65.20
12874;DHT22;6505;51.114;13.128;2022-08-19T04:20:18;27.30;65.30
12874;DHT22;6505;51.114;13.128;2022-08-19T04:22:46;27.30;65.10
12874;DHT22;6505;51.114;13.128;2022-08-19T04:25:14;27.40;65.20
12874;DHT22;6505;51.114;13.128;2022-08-19T04:27:42;27.40;65.40
12874;DHT22;6505;51.114;13.128;2022-08-19T04:30:15;27.40;65.30
12874;DHT22;6505;51.114;13.128;2022-08-19T04:32:44;27.30;65.40
12874;DHT22;6505;51.114;13.128;2022-08-19T04:35:12;27.30;65.40
12874;DHT22;6505;51.114;13.128;2022-08-19T04:37:43;27.30;65.20
12874;DHT22;6505;51.114;13.128;2022-08-19T04:40:11;27.40;65.30
12874;DHT22;6505;51.114;13.128;2022-08-19T04:42:57;27.30;65.30
12874;DHT22;6505;51.114;13.128;2022-08-19T04:45:27;27.30;65.30
12874;DHT22;6505;51.114;13.128;2022-08-19T04:48:09;27.30;65.80
12874;DHT22;6505;51.114;13.128;2022-08-19T04:50:55;27.30;65.70
12874;DHT22;6505;51.114;13.128;2022-08-19T04:53:26;27.30;65.60
12874;DHT22;6505;51.114;13.128;2022-08-19T04:55:55;27.30;65.70
12874;DHT22;6505;51.114;13.128;2022-08-19T04:58:25;27.40;65.80
12874;DHT22;6505;51.114;13.128;2022-08-19T05:00:56;27.30;65.80
12874;DHT22;6505;51.114;13.128;2022-08-19T05:03:26;27.30;65.90
12874;DHT22;6505;51.114;13.128;2022-08-19T05:06:04;27.30;65.60
12874;DHT22;6505;51.114;13.128;2022-08-19T05:08:36;27.30;66.00
12874;DHT22;6505;51.114;13.128;2022-08-19T05:11:09;27.30;66.10
12874;DHT22;6505;51.114;13.128;2022-08-19T05:13:40;27.30;66.20
12874;DHT22;6505;51.114;13.128;2022-08-19T05:16:12;27.30;66.00
12874;DHT22;6505;51.114;13.128;2022-08-19T05:18:40;27.30;66.30
12874;DHT22;6505;51.114;13.128;2022-08-19T05:21:28;27.30;66.00
12874;DHT22;6505;51.114;13.128;2022-08-19T05:24:15;27.30;66.00
12874;DHT22;6505;51.114;13.128;2022-08-19T05:26:47;27.30;66.10
12874;DHT22;6505;51.114;13.128;2022-08-19T05:29:19;27.30;66.50
12874;DHT22;6505;51.114;13.128;2022-08-19T05:31:49;27.30;66.50
12874;DHT22;6505;51.114;13.128;2022-08-19T05:34:20;27.30;66.60
12874;DHT22;6505;51.114;13.128;2022-08-19T05:36:52;27.20;66.60
12874;DHT22;6505;51.114;13.128;2022-08-19T05:39:25;27.30;67.00
12874;DHT22;6505;51.114;13.128;2022-08-19T05:41:57;27.20;66.60
12874;DHT22;6505;51.114;13.128;2022-08-19T05:44:29;27.20;66.70
12874;DHT22;6505;51.114;13.128;2022-08-19T05:47:01;27.30;67.10
12874;DHT22;6505;51.114;13.128;2022-08-19T05:49:32;27.30;67.30
12874;DHT22;6505;51.114;13.128;2022-08-19T05:52:03;27.20;67.00
12874;DHT22;6505;51.114;13.128;2022-08-19T05:54:33;27.30;67.20
12874;DHT22;6505;51.114;13.128;2022-08-19T05:57:02;27.20;67.00
12874;DHT22;6505;51.114;13.128;2022-08-19T05:59:30;27.30;67.00
12874;DHT22;6505;51.114;13.128;2022-08-19T06:02:06;27.30;67.20
12874;DHT22;6505;51.114;13.128;2022-08-19T06:04:34;27.20;66.60
12874;DHT22;6505;51.114;13.128;2022-08-19T06:07:02;27.30;66.80
12874;DHT22;6505;51.114;13.128;2022-08-19T06:09:38;27.30;67.10
12874;DHT22;6505;51.114;13.128;2022-08-19T06:12:20;27.30;66.90
12874;DHT22;6505;51.114;13.128;2022-08-19T06:14:57;27.30;66.70
12874;DHT22;6505;51.114;13.128;2022-08-19T06:17:28;27.20;66.70
12874;DHT22;6505;51.114;13.128;2022-08-19T06:19:57;27.30;66.80
12874;DHT22;6505;51.114;13.128;2022-08-19T06:22:26;27.20;66.70
12874;DHT22;6505;51.114;13.128;2022-08-19T06:24:55;27.20;66.80
12874;DHT22;6505;51.114;13.128;2022-08-19T06:27:24;27.30;66.70
12874;DHT22;6505;51.114;13.128;2022-08-19T06:29:52;27.20;66.80
12874;DHT22;6505;51.114;13.128;2022-08-19T06:32:20;27.20;66.90
12874;DHT22;6505;51.114;13.128;2022-08-19T06:34:49;27.30;67.00
12874;DHT22;6505;51.114;13.128;2022-08-19T06:37:17;27.20;67.20
12874;DHT22;6505;51.114;13.128;2022-08-19T06:39:49;27.30;67.20
12874;DHT22;6505;51.114;13.128;2022-08-19T06:42:17;27.20;67.10
12874;DHT22;6505;51.114;13.128;2022-08-19T06:44:49;27.20;67.10
12874;DHT22;6505;51.114;13.128;2022-08-19T06:47:21;27.20;67.20
12874;DHT22;6505;51.114;13.128;2022-08-19T06:49:56;27.20;67.20
12874;DHT22;6505;51.114;13.128;2022-08-19T06:52:29;27.20;67.30
12874;DHT22;6505;51.114;13.128;2022-08-19T06:55:00;27.20;67.20
12874;DHT22;6505;51.114;13.128;2022-08-19T06:57:32;27.20;67.10
12874;DHT22;6505;51.114;13.128;2022-08-19T07:00:01;27.20;67.30
12874;DHT22;6505;51.114;13.128;2022-08-19T07:02:39;27.20;67.40
12874;DHT22;6505;51.114;13.128;2022-08-19T07:05:22;27.20;68.40
12874;DHT22;6505;51.114;13.128;2022-08-19T07:07:50;27.20;67.70
12874;DHT22;6505;51.114;13.128;2022-08-19T07:10:18;27.20;67.60
12874;DHT22;6505;51.114;13.128;2022-08-19T07:12:46;27.20;67.70
12874;DHT22;6505;51.114;13.128;2022-08-19T07:15:17;27.30;68.40
12874;DHT22;6505;51.114;13.128;2022-08-19T07:17:45;27.20;67.30
12874;DHT22;6505;51.114;13.128;2022-08-19T07:20:19;27.20;67.20
12874;DHT22;6505;51.114;13.128;2022-08-19T07:22:55;27.30;67.30
12874;DHT22;6505;51.114;13.128;2022-08-19T07:25:24;27.30;67.40
12874;DHT22;6505;51.114;13.128;2022-08-19T07:27:59;27.30;67.30
12874;DHT22;6505;51.114;13.128;2022-08-19T07:30:27;27.20;67.40
12874;DHT22;6505;51.114;13.128;2022-08-19T07:32:57;27.30;67.50
12874;DHT22;6505;51.114;13.128;2022-08-19T07:35:29;27.30;67.40
12874;DHT22;6505;51.114;13.128;2022-08-19T07:38:00;27.20;67.60
12874;DHT22;6505;51.114;13.128;2022-08-19T07:40:30;27.30;67.70
12874;DHT22;6505;51.114;13.128;2022-08-19T07:42:58;27.30;67.80
12874;DHT22;6505;51.114;13.128;2022-08-19T07:45:26;27.20;67.70
12874;DHT22;6505;51.114;13.128;2022-08-19T07:47:55;27.20;67.40
12874;DHT22;6505;51.114;13.128;2022-08-19T07:50:23;27.20;67.30
12874;DHT22;6505;51.114;13.128;2022-08-19T07:52:51;27.30;67.30
12874;DHT22;6505;51.114;13.128;2022-08-19T07:55:23;27.20;67.60
12874;DHT22;6505;51.114;13.128;2022-08-19T07:58:12;27.20;67.50
12874;DHT22;6505;51.114;13.128;2022-08-19T08:00:42;27.30;68.00
12874;DHT22;6505;51.114;13.128;2022-08-19T08:03:11;27.20;68.00
12874;DHT22;6505;51.114;13.128;2022-08-19T08:05:40;27.30;68.30
12874;DHT22;6505;51.114;13.128;2022-08-19T08:08:26;27.20;68.20
12874;DHT22;6505;51.114;13.128;2022-08-19T08:11:16;27.20;68.00
12874;DHT22;6505;51.114;13.128;2022-08-19T08:13:47;27.20;67.90
12874;DHT22;6505;51.114;13.128;2022-08-19T08:16:30;27.20;68.00
12874;DHT22;6505;51.114;13.128;2022-08-19T08:19:00;27.20;67.90
12874;DHT22;6505;51.114;13.128;2022-08-19T08:21:33;27.20;67.70
12874;DHT22;6505;51.114;13.128;2022-08-19T08:24:02;27.20;68.40
12874;DHT22;6505;51.114;13.128;2022-08-19T08:26:32;27.20;68.80
12874;DHT22;6505;51.114;13.128;2022-08-19T08:29:00;27.20;68.70
12874;DHT22;6505;51.114;13.128;2022-08-19T08:31:39;27.20;68.90
12874;DHT22;6505;51.114;13.128;2022-08-19T08:34:10;27.20;68.70
12874;DHT22;6505;51.114;13.128;2022-08-19T08:36:42;27.20;69.00
12874;DHT22;6505;51.114;13.128;2022-08-19T08:39:14;27.20;69.00
12874;DHT22;6505;51.114;13.128;2022-08-19T08:41:51;27.20;68.90
12874;DHT22;6505;51.114;13.128;2022-08-19T08:44:26;27.20;69.10
12874;DHT22;6505;51.114;13.128;2022-08-19T08:47:03;27.30;69.70
12874;DHT22;6505;51.114;13.128;2022-08-19T08:49:44;27.20;70.10
12874;DHT22;6505;51.114;13.128;2022-08-19T08:52:21;27.20;69.10
12874;DHT22;6505;51.114;13.128;2022-08-19T08:55:03;27.20;68.80
12874;DHT22;6505;51.114;13.128;2022-08-19T08:57:52;27.20;68.60
12874;DHT22;6505;51.114;13.128;2022-08-19T09:00:26;27.20;68.40
12874;DHT22;6505;51.114;13.128;2022-08-19T09:02:57;27.20;68.70
12874;DHT22;6505;51.114;13.128;2022-08-19T09:05:39;27.20;69.30
12874;DHT22;6505;51.114;13.128;2022-08-19T09:08:18;27.20;69.00
12874;DHT22;6505;51.114;13.128;2022-08-19T09:10:56;27.20;69.30
12874;DHT22;6505;51.114;13.128;2022-08-19T09:13:34;27.20;69.30
12874;DHT22;6505;51.114;13.128;2022-08-19T09:16:13;27.20;69.80
12874;DHT22;6505;51.114;13.128;2022-08-19T09:18:49;27.20;69.80
12874;DHT22;6505;51.114;13.128;2022-08-19T09:21:21;27.20;69.90
12874;DHT22;6505;51.114;13.128;2022-08-19T09:23:56;27.20;69.30
12874;DHT22;6505;51.114;13.128;2022-08-19T09:26:26;27.20;69.30
12874;DHT22;6505;51.114;13.128;2022-08-19T09:29:16;27.20;69.10
12874;DHT22;6505;51.114;13.128;2022-08-19T09:31:44;27.20;69.30
12874;DHT22;6505;51.114;13.128;2022-08-19T09:34:12;27.20;69.50
12874;DHT22;6505;51.114;13.128;2022-08-19T09:36:48;27.20;69.30
12874;DHT22;6505;51.114;13.128;2022-08-19T09:39:22;27.20;69.80
12874;DHT22;6505;51.114;13.128;2022-08-19T09:41:50;27.20;69.80
12874;DHT22;6505;51.114;13.128;2022-08-19T09:44:20;27.20;69.80
12874;DHT22;6505;51.114;13.128;2022-08-19T09:46:49;27.30;70.20
12874;DHT22;6505;51.114;13.128;2022-08-19T09:49:18;27.30;69.70
12874;DHT22;6505;51.114;13.128;2022-08-19T09:51:50;27.20;69.90
12874;DHT22;6505;51.114;13.128;2022-08-19T09:54:21;27.30;69.80
12874;DHT22;6505;51.114;13.128;2022-08-19T09:56:51;27.30;69.90
12874;DHT22;6505;51.114;13.128;2022-08-19T09:59:21;27.30;69.80
12874;DHT22;6505;51.114;13.128;2022-08-19T10:01:49;27.30;69.30
12874;DHT22;6505;51.114;13.128;2022-08-19T10:04:19;27.30;69.50
12874;DHT22;6505;51.114;13.128;2022-08-19T10:06:49;27.30;69.40
12874;DHT22;6505;51.114;13.128;2022-08-19T10:09:21;27.30;69.40
12874;DHT22;6505;51.114;13.128;2022-08-19T10:12:01;27.30;69.00
12874;DHT22;6505;51.114;13.128;2022-08-19T10:14:34;27.30;68.90
12874;DHT22;6505;51.114;13.128;2022-08-19T10:17:04;27.30;69.10
12874;DHT22;6505;51.114;13.128;2022-08-19T10:19:47;27.30;68.80
12874;DHT22;6505;51.114;13.128;2022-08-19T10:22:22;27.30;68.60
12874;DHT22;6505;51.114;13.128;2022-08-19T10:24:52;27.30;69.00
12874;DHT22;6505;51.114;13.128;2022-08-19T10:27:21;27.30;69.10
12874;DHT22;6505;51.114;13.128;2022-08-19T10:29:53;27.30;69.00
12874;DHT22;6505;51.114;13.128;2022-08-19T10:32:24;27.30;69.10
12874;DHT22;6505;51.114;13.128;2022-08-19T10:35:00;27.40;69.40
12874;DHT22;6505;51.114;13.128;2022-08-19T10:37:31;27.30;69.40
12874;DHT22;6505;51.114;13.128;2022-08-19T10:40:01;27.40;69.90
12874;DHT22;6505;51.114;13.128;2022-08-19T10:42:31;27.40;69.90
12874;DHT22;6505;51.114;13.128;2022-08-19T10:45:00;27.40;69.70
12874;DHT22;6505;51.114;13.128;2022-08-19T10:47:30;27.40;69.50
12874;DHT22;6505;51.114;13.128;2022-08-19T10:49:59;27.30;69.30
12874;DHT22;6505;51.114;13.128;2022-08-19T10:52:46;27.40;69.30
12874;DHT22;6505;51.114;13.128;2022-08-19T10:55:18;27.40;69.40
12874;DHT22;6505;51.114;13.128;2022-08-19T10:58:10;27.40;69.10
12874;DHT22;6505;51.114;13.128;2022-08-19T11:00:41;27.40;69.30
12874;DHT22;6505;51.114;13.128;2022-08-19T11:03:11;27.30;69.20
12874;DHT22;6505;51.114;13.128;2022-08-19T11:05:39;27.40;69.30
12874;DHT22;6505;51.114;13.128;2022-08-19T11:08:07;27.40;69.50
12874;DHT22;6505;51.114;13.128;2022-08-19T11:10:49;27.30;69.30
12874;DHT22;6505;51.114;13.128;2022-08-19T11:13:20;27.40;69.00
12874;DHT22;6505;51.114;13.128;2022-08-19T11:15:57;27.40;69.10
12874;DHT22;6505;51.114;13.128;2022-08-19T11:18:34;27.40;69.20
12874;DHT22;6505;51.114;13.128;2022-08-19T11:21:08;27.40;69.10
12874;DHT22;6505;51.114;13.128;2022-08-19T11:23:38;27.40;68.90
12874;DHT22;6505;51.114;13.128;2022-08-19T11:26:07;27.40;68.70
12874;DHT22;6505;51.114;13.128;2022-08-19T11:28:35;27.40;68.60
12874;DHT22;6505;51.114;13.128;2022-08-19T11:31:09;27.40;68.80
12874;DHT22;6505;51.114;13.128;2022-08-19T11:33:38;27.40;68.90
12874;DHT22;6505;51.114;13.128;2022-08-19T11:36:06;27.40;68.30
12874;DHT22;6505;51.114;13.128;2022-08-19T11:38:38;27.40;68.60
12874;DHT22;6505;51.114;13.128;2022-08-19T11:41:07;27.40;68.70
12874;DHT22;6505;51.114;13.128;2022-08-19T11:43:36;27.40;68.80
12874;DHT22;6505;51.114;13.128;2022-08-19T11:46:09;27.40;68.60
12874;DHT22;6505;51.114;13.128;2022-08-19T11:48:40;27.40;68.70
12874;DHT22;6505;51.114;13.128;2022-08-19T11:51:10;27.40;68.70
12874;DHT22;6505;51.114;13.128;2022-08-19T11:53:39;27.40;68.60
12874;DHT22;6505;51.114;13.128;2022-08-19T11:56:08;27.30;68.80
12874;DHT22;6505;51.114;13.128;2022-08-19T11:58:39;27.30;68.50
12874;DHT22;6505;51.114;13.128;2022-08-19T12:01:10;27.40;68.50
12874;DHT22;6505;51.114;13.128;2022-08-19T12:03:40;27.40;68.50
12874;DHT22;6505;51.114;13.128;2022-08-19T12:06:12;27.30;68.30
12874;DHT22;6505;51.114;13.128;2022-08-19T12:08:41;27.40;68.70
12874;DHT22;6505;51.114;13.128;2022-08-19T12:11:11;27.30;68.70
12874;DHT22;6505;51.114;13.128;2022-08-19T12:13:40;27.40;68.70
12874;DHT22;6505;51.114;13.128;2022-08-19T12:16:15;27.40;68.90
12874;DHT22;6505;51.114;13.128;2022-08-19T12:18:46;27.40;68.90
12874;DHT22;6505;51.114;13.128;2022-08-19T12:21:14;27.40;69.50
12874;DHT22;6505;51.114;13.128;2022-08-19T12:23:43;27.40;68.80
12874;DHT22;6505;51.114;13.128;2022-08-19T12:26:13;27.30;68.50
12874;DHT22;6505;51.114;13.128;2022-08-19T12:28:41;27.40;68.40
12874;DHT22;6505;51.114;13.128;2022-08-19T12:31:10;27.30;68.50
12874;DHT22;6505;51.114;13.128;2022-08-19T12:33:41;27.40;68.50
12874;DHT22;6505;51.114;13.128;2022-08-19T12:36:14;27.40;68.60
12874;DHT22;6505;51.114;13.128;2022-08-19T12:38:44;27.30;68.40
12874;DHT22;6505;51.114;13.128;2022-08-19T12:41:15;27.40;68.40
12874;DHT22;6505;51.114;13.128;2022-08-19T12:43:45;27.40;68.50
12874;DHT22;6505;51.114;13.128;2022-08-19T12:46:16;27.40;68.50
12874;DHT22;6505;51.114;13.128;2022-08-19T12:48:49;27.40;68.40
12874;DHT22;6505;51.114;13.128;2022-08-19T12:51:21;27.40;68.40
12874;DHT22;6505;51.114;13.128;2022-08-19T12:53:48;27.40;68.70
12874;DHT22;6505;51.114;13.128;2022-08-19T12:56:17;27.40;68.70
12874;DHT22;6505;51.114;13.128;2022-08-19T12:58:49;27.40;68.60
12874;DHT22;6505;51.114;13.128;2022-08-19T13:01:19;27.40;68.30
12874;DHT22;6505;51.114;13.128;2022-08-19T13:03:50;27.40;68.20
12874;DHT22;6505;51.114;13.128;2022-08-19T13:06:20;27.40;67.90
12874;DHT22;6505;51.114;13.128;2022-08-19T13:08:48;27.40;68.10
12874;DHT22;6505;51.114;13.128;2022-08-19T13:11:18;27.40;68.00
12874;DHT22;6505;51.114;13.128;2022-08-19T13:13:51;27.40;68.00
12874;DHT22;6505;51.114;13.128;2022-08-19T13:16:21;27.40;68.00
12874;DHT22;6505;51.114;13.128;2022-08-19T13:18:51;27.40;68.10
12874;DHT22;6505;51.114;13.128;2022-08-19T13:21:21;27.40;68.30
12874;DHT22;6505;51.114;13.128;2022-08-19T13:23:52;27.40;68.30
12874;DHT22;6505;51.114;13.128;2022-08-19T13:26:21;27.40;68.30
12874;DHT22;6505;51.114;13.128;2022-08-19T13:28:49;27.40;68.30
12874;DHT22;6505;51.114;13.128;2022-08-19T13:31:49;27.40;68.30
12874;DHT22;6505;51.114;13.128;2022-08-19T13:34:40;27.40;68.20
12874;DHT22;6505;51.114;13.128;2022-08-19T13:37:08;27.40;68.00
12874;DHT22;6505;51.114;13.128;2022-08-19T13:39:36;27.40;68.00
12874;DHT22;6505;51.114;13.128;2022-08-19T13:42:04;27.40;67.90
12874;DHT22;6505;51.114;13.128;2022-08-19T13:44:33;27.40;68.10
12874;DHT22;6505;51.114;13.128;2022-08-19T13:47:02;27.40;67.80
12874;DHT22;6505;51.114;13.128;2022-08-19T13:49:34;27.40;67.90
12874;DHT22;6505;51.114;13.128;2022-08-19T13:52:05;27.40;68.10
12874;DHT22;6505;51.114;13.128;2022-08-19T13:54:33;27.40;67.70
12874;DHT22;6505;51.114;13.128;2022-08-19T13:57:01;27.40;67.70
12874;DHT22;6505;51.114;13.128;2022-08-19T13:59:30;27.40;68.50
12874;DHT22;6505;51.114;13.128;2022-08-19T14:01:59;27.40;67.40
12874;DHT22;6505;51.114;13.128;2022-08-19T14:04:28;27.40;67.50
12874;DHT22;6505;51.114;13.128;2022-08-19T14:06:56;27.50;67.60
12874;DHT22;6505;51.114;13.128;2022-08-19T14:09:25;27.40;67.40
12874;DHT22;6505;51.114;13.128;2022-08-19T14:11:53;27.40;67.20
12874;DHT22;6505;51.114;13.128;2022-08-19T14:14:21;27.40;67.40
12874;DHT22;6505;51.114;13.128;2022-08-19T14:16:49;27.40;67.40
12874;DHT22;6505;51.114;13.128;2022-08-19T14:19:18;27.40;67.30
12874;DHT22;6505;51.114;13.128;2022-08-19T14:21:46;27.40;67.40
12874;DHT22;6505;51.114;13.128;2022-08-19T14:24:14;27.40;67.40
12874;DHT22;6505;51.114;13.128;2022-08-19T14:26:44;27.40;67.40
12874;DHT22;6505;51.114;13.128;2022-08-19T14:29:12;27.40;67.40
12874;DHT22;6505;51.114;13.128;2022-08-19T14:31:40;27.50;67.50
12874;DHT22;6505;51.114;13.128;2022-08-19T14:34:10;27.40;67.40
12874;DHT22;6505;51.114;13.128;2022-08-19T14:36:40;27.40;67.30
12874;DHT22;6505;51.114;13.128;2022-08-19T14:39:09;27.50;67.50
12874;DHT22;6505;51.114;13.128;2022-08-19T14:41:40;27.40;68.10
12874;DHT22;6505;51.114;13.128;2022-08-19T14:44:10;27.50;67.40
12874;DHT22;6505;51.114;13.128;2022-08-19T14:46:39;27.40;67.20
12874;DHT22;6505;51.114;13.128;2022-08-19T14:49:15;27.50;67.10
12874;DHT22;6505;51.114;13.128;2022-08-19T14:51:43;27.50;67.30
12874;DHT22;6505;51.114;13.128;2022-08-19T14:54:13;27.50;67.20
12874;DHT22;6505;51.114;13.128;2022-08-19T14:56:41;27.50;67.00
12874;DHT22;6505;51.114;13.128;2022-08-19T14:59:11;27.50;67.00
12874;DHT22;6505;51.114;13.128;2022-08-19T15:01:39;27.50;67.10
12874;DHT22;6505;51.114;13.128;2022-08-19T15:04:07;27.50;67.30
12874;DHT22;6505;51.114;13.128;2022-08-19T15:06:35;27.50;67.20
12874;DHT22;6505;51.114;13.128;2022-08-19T15:09:04;27.50;67.40
12874;DHT22;6505;51.114;13.128;2022-08-19T15:11:33;27.50;68.00
12874;DHT22;6505;51.114;13.128;2022-08-19T15:14:01;27.50;67.40
12874;DHT22;6505;51.114;13.128;2022-08-19T15:16:31;27.50;67.00
12874;DHT22;6505;51.114;13.128;2022-08-19T15:18:59;27.50;67.30
12874;DHT22;6505;51.114;13.128;2022-08-19T15:21:29;27.50;67.50
12874;DHT22;6505;51.114;13.128;2022-08-19T15:23:58;27.50;67.30
12874;DHT22;6505;51.114;13.128;2022-08-19T15:26:27;27.50;67.10
12874;DHT22;6505;51.114;13.128;2022-08-19T15:28:59;27.50;66.90
12874;DHT22;6505;51.114;13.128;2022-08-19T15:31:28;27.50;66.90
12874;DHT22;6505;51.114;13.128;2022-08-19T15:33:59;27.50;67.00
12874;DHT22;6505;51.114;13.128;2022-08-19T15:36:28;27.50;67.00
12874;DHT22;6505;51.114;13.128;2022-08-19T15:38:56;27.50;67.00
12874;DHT22;6505;51.114;13.128;2022-08-19T15:41:28;27.50;66.90
12874;DHT22;6505;51.114;13.128;2022-08-19T15:43:58;27.50;66.90
12874;DHT22;6505;51.114;13.128;2022-08-19T15:46:32;27.50;66.80
12874;DHT22;6505;51.114;13.128;2022-08-19T15:49:02;27.50;66.80
12874;DHT22;6505;51.114;13.128;2022-08-19T15:51:33;27.50;67.70
12874;DHT22;6505;51.114;13.128;2022-08-19T15:54:03;27.50;66.90
12874;DHT22;6505;51.114;13.128;2022-08-19T15:56:33;27.50;66.80
12874;DHT22;6505;51.114;13.128;2022-08-19T15:59:27;27.50;66.50